sensor_id;sensor_type;location;lat;lon;timestamp;pressure;altitude;pressure_sealevel;temperature;humidity
62548;BME280;48602;45.192;5.722;2022-10-28T00:00:20;100144.00;;;16.20;88.35
62548;BME280;48602;45.192;5.722;2022-10-28T00:02:46;100148.53;;;16.18;88.20
62548;BME280;48602;45.192;5.722;2022-10-28T00:05:11;100152.97;;;16.17;88.28
62548;BME280;48602;45.192;5.722;2022-10-28T00:07:36;100151.31;;;16.15;88.41
62548;BME280;48602;45.192;5.722;2022-10-28T00:10:02;100152.25;;;16.14;88.71
62548;BME280;48602;45.192;5.722;2022-10-28T00:12:28;100157.63;;;16.12;88.32
62548;BME280;48602;45.192;5.722;2022-10-28T00:14:53;100159.44;;;16.12;88.59
62548;BME280;48602;45.192;5.722;2022-10-28T00:17:18;100161.31;;;16.10;88.25
62548;BME280;48602;45.192;5.722;2022-10-28T00:19:44;100157.00;;;16.07;88.85
62548;BME280;48602;45.192;5.722;2022-10-28T00:22:09;100160.66;;;16.04;89.02
62548;BME280;48602;45.192;5.722;2022-10-28T00:24:34;100165.06;;;16.05;89.27
62548;BME280;48602;45.192;5.722;2022-10-28T00:27:00;100166.13;;;16.01;88.94
62548;BME280;48602;45.192;5.722;2022-10-28T00:29:25;100164.53;;;15.97;89.47
62548;BME280;48602;45.192;5.722;2022-10-28T00:31:50;100167.38;;;15.93;89.87
62548;BME280;48602;45.192;5.722;2022-10-28T00:34:18;100169.34;;;15.89;90.44
62548;BME280;48602;45.192;5.722;2022-10-28T00:36:47;100167.88;;;15.82;90.59
62548;BME280;48602;45.192;5.722;2022-10-28T00:39:18;100174.25;;;15.78;90.64
62548;BME280;48602;45.192;5.722;2022-10-28T00:41:47;100169.94;;;15.76;90.97
62548;BME280;48602;45.192;5.722;2022-10-28T00:49:45;100165.78;;;15.70;91.57
62548;BME280;48602;45.192;5.722;2022-10-28T00:52:17;100168.44;;;15.70;91.45
62548;BME280;48602;45.192;5.722;2022-10-28T00:54:44;100169.31;;;15.70;91.28
62548;BME280;48602;45.192;5.722;2022-10-28T00:57:14;100156.00;;;15.70;91.11
62548;BME280;48602;45.192;5.722;2022-10-28T00:59:43;100167.56;;;15.69;91.22
62548;BME280;48602;45.192;5.722;2022-10-28T01:02:10;100167.56;;;15.69;91.05
62548;BME280;48602;45.192;5.722;2022-10-28T01:04:36;100170.31;;;15.68;90.90
62548;BME280;48602;45.192;5.722;2022-10-28T01:07:02;100178.34;;;15.66;90.65
62548;BME280;48602;45.192;5.722;2022-10-28T01:09:27;100175.69;;;15.66;90.63
62548;BME280;48602;45.192;5.722;2022-10-28T01:12:04;100172.22;;;15.64;91.05
62548;BME280;48602;45.192;5.722;2022-10-28T01:34:13;100180.91;;;15.48;91.64
62548;BME280;48602;45.192;5.722;2022-10-28T01:44:58;100170.28;;;15.48;91.66
62548;BME280;48602;45.192;5.722;2022-10-28T01:47:30;100168.53;;;15.47;91.36
62548;BME280;48602;45.192;5.722;2022-10-28T01:50:05;100170.34;;;15.46;91.46
62548;BME280;48602;45.192;5.722;2022-10-28T01:52:32;100170.28;;;15.48;91.85
62548;BME280;48602;45.192;5.722;2022-10-28T01:55:08;100171.19;;;15.47;91.41
62548;BME280;48602;45.192;5.722;2022-10-28T01:57:37;100172.19;;;15.44;91.55
62548;BME280;48602;45.192;5.722;2022-10-28T02:00:05;100178.44;;;15.43;91.25
62548;BME280;48602;45.192;5.722;2022-10-28T02:02:36;100170.53;;;15.42;91.76
62548;BME280;48602;45.192;5.722;2022-10-28T02:08:49;100160.84;;;15.41;91.84
62548;BME280;48602;45.192;5.722;2022-10-28T02:13:57;100150.28;;;15.39;91.76
62548;BME280;48602;45.192;5.722;2022-10-28T02:19:17;100153.00;;;15.38;91.54
62548;BME280;48602;45.192;5.722;2022-10-28T02:29:49;100153.13;;;15.34;91.73
62548;BME280;48602;45.192;5.722;2022-10-28T02:32:20;100142.63;;;15.31;91.72
62548;BME280;48602;45.192;5.722;2022-10-28T02:34:51;100140.91;;;15.30;91.86
62548;BME280;48602;45.192;5.722;2022-10-28T02:37:22;100139.16;;;15.29;92.22
62548;BME280;48602;45.192;5.722;2022-10-28T02:39:57;100131.25;;;15.28;91.92
62548;BME280;48602;45.192;5.722;2022-10-28T02:42:34;100133.97;;;15.26;92.03
62548;BME280;48602;45.192;5.722;2022-10-28T02:45:12;100131.38;;;15.25;92.23
62548;BME280;48602;45.192;5.722;2022-10-28T02:47:43;100137.66;;;15.24;92.07
62548;BME280;48602;45.192;5.722;2022-10-28T02:50:15;100131.56;;;15.22;92.26
62548;BME280;48602;45.192;5.722;2022-10-28T02:52:45;100140.44;;;15.21;92.39
62548;BME280;48602;45.192;5.722;2022-10-28T02:55:14;100137.84;;;15.19;92.41
62548;BME280;48602;45.192;5.722;2022-10-28T02:57:43;100134.34;;;15.19;92.54
62548;BME280;48602;45.192;5.722;2022-10-28T03:00:19;100125.56;;;15.17;92.60
62548;BME280;48602;45.192;5.722;2022-10-28T03:02:45;100131.75;;;15.17;92.45
62548;BME280;48602;45.192;5.722;2022-10-28T03:05:11;100139.78;;;15.16;92.68
62548;BME280;48602;45.192;5.722;2022-10-28T03:07:36;100136.31;;;15.14;92.77
62548;BME280;48602;45.192;5.722;2022-10-28T03:10:02;100131.00;;;15.14;92.73
62548;BME280;48602;45.192;5.722;2022-10-28T03:12:27;100123.97;;;15.13;93.11
62548;BME280;48602;45.192;5.722;2022-10-28T03:14:52;100130.13;;;15.13;92.79
62548;BME280;48602;45.192;5.722;2022-10-28T03:17:18;100132.84;;;15.12;92.91
62548;BME280;48602;45.192;5.722;2022-10-28T03:19:43;100141.69;;;15.12;92.65
62548;BME280;48602;45.192;5.722;2022-10-28T03:22:08;100133.78;;;15.11;92.64
62548;BME280;48602;45.192;5.722;2022-10-28T03:24:34;100131.19;;;15.09;92.70
62548;BME280;48602;45.192;5.722;2022-10-28T03:26:59;100131.28;;;15.08;93.05
62548;BME280;48602;45.192;5.722;2022-10-28T03:29:24;100133.06;;;15.07;92.51
62548;BME280;48602;45.192;5.722;2022-10-28T03:31:50;100120.78;;;15.05;92.75
62548;BME280;48602;45.192;5.722;2022-10-28T03:34:15;100119.97;;;15.02;92.85
62548;BME280;48602;45.192;5.722;2022-10-28T03:36:41;100128.94;;;15.00;92.81
62548;BME280;48602;45.192;5.722;2022-10-28T03:39:06;100130.78;;;14.98;92.77
62548;BME280;48602;45.192;5.722;2022-10-28T03:41:32;100128.19;;;14.96;92.94
62548;BME280;48602;45.192;5.722;2022-10-28T03:43:57;100127.31;;;14.96;92.97
62548;BME280;48602;45.192;5.722;2022-10-28T03:46:22;100123.88;;;14.94;92.88
62548;BME280;48602;45.192;5.722;2022-10-28T03:48:48;100115.97;;;14.92;93.02
62548;BME280;48602;45.192;5.722;2022-10-28T03:51:13;100117.69;;;14.93;93.04
62548;BME280;48602;45.192;5.722;2022-10-28T03:53:38;100117.75;;;14.92;93.07
62548;BME280;48602;45.192;5.722;2022-10-28T03:56:04;100120.34;;;14.93;93.30
62548;BME280;48602;45.192;5.722;2022-10-28T03:58:30;100116.81;;;14.93;92.98
62548;BME280;48602;45.192;5.722;2022-10-28T04:00:55;100124.78;;;14.93;93.29
62548;BME280;48602;45.192;5.722;2022-10-28T04:03:22;100122.13;;;14.93;93.15
62548;BME280;48602;45.192;5.722;2022-10-28T04:05:48;100119.47;;;14.93;92.93
62548;BME280;48602;45.192;5.722;2022-10-28T04:08:14;100121.28;;;14.92;92.95
62548;BME280;48602;45.192;5.722;2022-10-28T04:10:40;100125.72;;;14.92;92.92
62548;BME280;48602;45.192;5.722;2022-10-28T04:13:05;100124.78;;;14.93;93.07
62548;BME280;48602;45.192;5.722;2022-10-28T04:15:31;100121.28;;;14.92;92.56
62548;BME280;48602;45.192;5.722;2022-10-28T04:17:57;100124.84;;;14.91;93.01
62548;BME280;48602;45.192;5.722;2022-10-28T04:20:24;100132.91;;;14.90;92.80
62548;BME280;48602;45.192;5.722;2022-10-28T04:22:49;100132.09;;;14.88;92.83
62548;BME280;48602;45.192;5.722;2022-10-28T04:25:15;100139.31;;;14.84;92.88
62548;BME280;48602;45.192;5.722;2022-10-28T04:27:44;100142.91;;;14.83;92.85
62548;BME280;48602;45.192;5.722;2022-10-28T04:30:10;100149.16;;;14.82;93.12
62548;BME280;48602;45.192;5.722;2022-10-28T04:32:43;100143.91;;;14.81;92.79
62548;BME280;48602;45.192;5.722;2022-10-28T04:35:09;100144.06;;;14.76;92.89
62548;BME280;48602;45.192;5.722;2022-10-28T04:37:35;100139.84;;;14.72;92.88
62548;BME280;48602;45.192;5.722;2022-10-28T04:40:01;100139.03;;;14.70;93.24
62548;BME280;48602;45.192;5.722;2022-10-28T04:42:27;100139.09;;;14.69;93.38
62548;BME280;48602;45.192;5.722;2022-10-28T04:44:52;100142.66;;;14.68;93.16
62548;BME280;48602;45.192;5.722;2022-10-28T04:47:17;100149.78;;;14.67;93.07
62548;BME280;48602;45.192;5.722;2022-10-28T04:49:43;100156.00;;;14.66;93.44
62548;BME280;48602;45.192;5.722;2022-10-28T04:52:09;100157.84;;;14.64;93.21
62548;BME280;48602;45.192;5.722;2022-10-28T04:54:34;100154.34;;;14.63;93.55
62548;BME280;48602;45.192;5.722;2022-10-28T04:57:00;100151.63;;;14.65;93.45
62548;BME280;48602;45.192;5.722;2022-10-28T04:59:26;100155.19;;;14.64;93.56
62548;BME280;48602;45.192;5.722;2022-10-28T05:01:51;100151.69;;;14.63;94.04
62548;BME280;48602;45.192;5.722;2022-10-28T05:04:17;100136.69;;;14.62;93.65
62548;BME280;48602;45.192;5.722;2022-10-28T05:06:42;100142.91;;;14.61;93.94
62548;BME280;48602;45.192;5.722;2022-10-28T05:09:07;100143.84;;;14.60;94.01
62548;BME280;48602;45.192;5.722;2022-10-28T05:11:33;100145.63;;;14.60;93.92
62548;BME280;48602;45.192;5.722;2022-10-28T05:13:58;100144.81;;;14.58;93.88
62548;BME280;48602;45.192;5.722;2022-10-28T05:16:24;100144.91;;;14.56;94.05
62548;BME280;48602;45.192;5.722;2022-10-28T05:18:49;100146.75;;;14.54;93.75
62548;BME280;48602;45.192;5.722;2022-10-28T05:21:15;100156.50;;;14.54;93.85
62548;BME280;48602;45.192;5.722;2022-10-28T05:23:40;100149.53;;;14.51;94.35
62548;BME280;48602;45.192;5.722;2022-10-28T05:26:06;100150.44;;;14.50;94.37
62548;BME280;48602;45.192;5.722;2022-10-28T05:28:31;100145.19;;;14.49;94.60
62548;BME280;48602;45.192;5.722;2022-10-28T05:30:57;100149.63;;;14.48;94.38
62548;BME280;48602;45.192;5.722;2022-10-28T05:33:22;100152.34;;;14.47;94.13
62548;BME280;48602;45.192;5.722;2022-10-28T05:35:48;100152.47;;;14.44;94.46
62548;BME280;48602;45.192;5.722;2022-10-28T05:38:14;100155.97;;;14.44;94.35
62548;BME280;48602;45.192;5.722;2022-10-28T05:40:39;100151.59;;;14.43;94.40
62548;BME280;48602;45.192;5.722;2022-10-28T05:43:04;100159.56;;;14.43;94.60
62548;BME280;48602;45.192;5.722;2022-10-28T05:45:30;100154.25;;;14.43;94.73
62548;BME280;48602;45.192;5.722;2022-10-28T05:47:56;100150.69;;;14.44;94.41
62548;BME280;48602;45.192;5.722;2022-10-28T05:50:22;100148.84;;;14.46;94.35
62548;BME280;48602;45.192;5.722;2022-10-28T05:52:50;100150.63;;;14.46;94.13
62548;BME280;48602;45.192;5.722;2022-10-28T05:55:17;100155.00;;;14.47;94.42
62548;BME280;48602;45.192;5.722;2022-10-28T05:57:46;100161.16;;;14.47;94.46
62548;BME280;48602;45.192;5.722;2022-10-28T06:00:12;100161.16;;;14.47;94.20
62548;BME280;48602;45.192;5.722;2022-10-28T06:02:38;100154.09;;;14.48;94.26
62548;BME280;48602;45.192;5.722;2022-10-28T06:05:04;100152.28;;;14.48;93.91
62548;BME280;48602;45.192;5.722;2022-10-28T06:07:29;100149.63;;;14.48;94.33
62548;BME280;48602;45.192;5.722;2022-10-28T06:09:55;100149.59;;;14.50;94.17
62548;BME280;48602;45.192;5.722;2022-10-28T06:12:20;100145.19;;;14.49;93.83
62548;BME280;48602;45.192;5.722;2022-10-28T06:14:45;100146.94;;;14.50;93.66
62548;BME280;48602;45.192;5.722;2022-10-28T06:17:11;100149.59;;;14.50;93.66
62548;BME280;48602;45.192;5.722;2022-10-28T06:19:36;100152.06;;;14.54;94.12
62548;BME280;48602;45.192;5.722;2022-10-28T06:22:02;100159.81;;;14.59;93.97
62548;BME280;48602;45.192;5.722;2022-10-28T06:24:27;100150.88;;;14.61;93.34
62548;BME280;48602;45.192;5.722;2022-10-28T06:26:52;100149.84;;;14.65;93.45
62548;BME280;48602;45.192;5.722;2022-10-28T06:29:18;100142.72;;;14.66;93.02
62548;BME280;48602;45.192;5.722;2022-10-28T06:31:44;100147.13;;;14.67;92.91
62548;BME280;48602;45.192;5.722;2022-10-28T06:34:11;100138.16;;;14.70;93.18
62548;BME280;48602;45.192;5.722;2022-10-28T06:36:37;100147.81;;;14.72;93.27
62548;BME280;48602;45.192;5.722;2022-10-28T06:39:03;100149.44;;;14.75;92.94
62548;BME280;48602;45.192;5.722;2022-10-28T06:41:29;100146.72;;;14.76;92.99
62548;BME280;48602;45.192;5.722;2022-10-28T06:43:54;100158.16;;;14.78;93.03
62548;BME280;48602;45.192;5.722;2022-10-28T06:46:20;100158.09;;;14.80;92.95
62548;BME280;48602;45.192;5.722;2022-10-28T06:48:46;100161.56;;;14.82;92.86
62548;BME280;48602;45.192;5.722;2022-10-28T06:51:11;100150.94;;;14.82;92.48
62548;BME280;48602;45.192;5.722;2022-10-28T06:53:37;100158.78;;;14.85;92.24
62548;BME280;48602;45.192;5.722;2022-10-28T06:56:02;100168.41;;;14.87;92.36
62548;BME280;48602;45.192;5.722;2022-10-28T06:58:28;100177.25;;;14.88;92.12
62548;BME280;48602;45.192;5.722;2022-10-28T07:00:53;100177.19;;;14.89;92.32
62548;BME280;48602;45.192;5.722;2022-10-28T07:03:19;100178.91;;;14.90;92.18
62548;BME280;48602;45.192;5.722;2022-10-28T07:05:45;100186.78;;;14.92;91.87
62548;BME280;48602;45.192;5.722;2022-10-28T07:08:11;100178.75;;;14.93;92.07
62548;BME280;48602;45.192;5.722;2022-10-28T07:10:38;100185.69;;;14.97;91.66
62548;BME280;48602;45.192;5.722;2022-10-28T07:13:04;100182.03;;;15.00;91.41
62548;BME280;48602;45.192;5.722;2022-10-28T07:15:29;100192.53;;;15.03;91.13
62548;BME280;48602;45.192;5.722;2022-10-28T07:17:56;100203.06;;;15.06;90.68
62548;BME280;48602;45.192;5.722;2022-10-28T07:20:23;100202.91;;;15.09;90.79
62548;BME280;48602;45.192;5.722;2022-10-28T07:22:56;100208.16;;;15.11;90.42
62548;BME280;48602;45.192;5.722;2022-10-28T07:25:22;100197.34;;;15.15;90.33
62548;BME280;48602;45.192;5.722;2022-10-28T07:27:47;100205.06;;;15.21;90.09
62548;BME280;48602;45.192;5.722;2022-10-28T07:30:13;100206.59;;;15.27;89.96
62548;BME280;48602;45.192;5.722;2022-10-28T07:32:38;100211.66;;;15.33;89.84
62548;BME280;48602;45.192;5.722;2022-10-28T07:35:04;100209.69;;;15.38;89.93
62548;BME280;48602;45.192;5.722;2022-10-28T07:37:29;100212.91;;;15.45;89.17
62548;BME280;48602;45.192;5.722;2022-10-28T07:39:55;100208.34;;;15.48;89.42
62548;BME280;48602;45.192;5.722;2022-10-28T07:42:20;100205.56;;;15.51;89.10
62548;BME280;48602;45.192;5.722;2022-10-28T07:44:46;100210.75;;;15.54;88.92
62548;BME280;48602;45.192;5.722;2022-10-28T07:47:11;100208.94;;;15.56;89.09
62548;BME280;48602;45.192;5.722;2022-10-28T07:49:36;100208.63;;;15.62;88.78
62548;BME280;48602;45.192;5.722;2022-10-28T07:52:02;100223.47;;;15.68;88.98
62548;BME280;48602;45.192;5.722;2022-10-28T07:54:27;100222.41;;;15.72;88.98
62548;BME280;48602;45.192;5.722;2022-10-28T07:56:53;100224.78;;;15.78;88.87
62548;BME280;48602;45.192;5.722;2022-10-28T07:59:18;100224.53;;;15.84;88.41
62548;BME280;48602;45.192;5.722;2022-10-28T08:01:45;100224.34;;;15.89;88.22
62548;BME280;48602;45.192;5.722;2022-10-28T08:04:10;100226.75;;;15.93;87.86
62548;BME280;48602;45.192;5.722;2022-10-28T08:06:36;100226.56;;;15.98;87.63
62548;BME280;48602;45.192;5.722;2022-10-28T08:09:02;100228.31;;;15.99;87.56
62548;BME280;48602;45.192;5.722;2022-10-28T08:11:27;100236.94;;;16.04;87.45
62548;BME280;48602;45.192;5.722;2022-10-28T08:13:53;100229.69;;;16.08;87.55
62548;BME280;48602;45.192;5.722;2022-10-28T08:16:20;100233.88;;;16.13;87.62
62548;BME280;48602;45.192;5.722;2022-10-28T08:18:46;100234.53;;;16.18;86.90
62548;BME280;48602;45.192;5.722;2022-10-28T08:21:12;100234.25;;;16.24;86.86
62548;BME280;48602;45.192;5.722;2022-10-28T08:23:38;100228.56;;;16.32;86.77
62548;BME280;48602;45.192;5.722;2022-10-28T08:26:05;100230.09;;;16.37;86.28
62548;BME280;48602;45.192;5.722;2022-10-28T08:28:31;100230.66;;;16.44;86.20
62548;BME280;48602;45.192;5.722;2022-10-28T08:31:00;100232.13;;;16.51;85.60
62548;BME280;48602;45.192;5.722;2022-10-28T08:33:26;100229.19;;;16.57;85.31
62548;BME280;48602;45.192;5.722;2022-10-28T08:35:52;100221.78;;;16.64;85.53
62548;BME280;48602;45.192;5.722;2022-10-28T08:38:17;100226.81;;;16.70;85.31
62548;BME280;48602;45.192;5.722;2022-10-28T08:43:21;100231.34;;;16.87;84.35
62548;BME280;48602;45.192;5.722;2022-10-28T08:45:55;100234.41;;;16.96;84.32
62548;BME280;48602;45.192;5.722;2022-10-28T08:48:29;100233.03;;;17.06;83.64
62548;BME280;48602;45.192;5.722;2022-10-28T08:54:01;100230.94;;;17.30;83.07
62548;BME280;48602;45.192;5.722;2022-10-28T08:56:39;100236.53;;;17.43;82.31
62548;BME280;48602;45.192;5.722;2022-10-28T08:59:12;100232.16;;;17.59;82.18
62548;BME280;48602;45.192;5.722;2022-10-28T09:01:52;100233.22;;;17.74;81.53
62548;BME280;48602;45.192;5.722;2022-10-28T09:04:37;100219.88;;;17.91;80.63
62548;BME280;48602;45.192;5.722;2022-10-28T09:07:04;100225.25;;;18.07;79.51
62548;BME280;48602;45.192;5.722;2022-10-28T09:09:32;100220.97;;;18.20;79.14
62548;BME280;48602;45.192;5.722;2022-10-28T09:17:18;100210.88;;;18.58;78.00
62548;BME280;48602;45.192;5.722;2022-10-28T09:19:48;100201.50;;;18.67;77.40
62548;BME280;48602;45.192;5.722;2022-10-28T09:22:24;100204.41;;;18.78;76.97
62548;BME280;48602;45.192;5.722;2022-10-28T09:25:01;100204.69;;;18.89;76.36
62548;BME280;48602;45.192;5.722;2022-10-28T09:35:09;100201.03;;;19.22;75.22
62548;BME280;48602;45.192;5.722;2022-10-28T09:38:38;100201.50;;;19.28;74.82
62548;BME280;48602;45.192;5.722;2022-10-28T09:43:51;100209.59;;;19.42;73.46
62548;BME280;48602;45.192;5.722;2022-10-28T09:46:17;100208.38;;;19.48;72.70
62548;BME280;48602;45.192;5.722;2022-10-28T09:48:47;100209.75;;;19.55;72.84
62548;BME280;48602;45.192;5.722;2022-10-28T09:51:32;100204.81;;;19.63;71.70
62548;BME280;48602;45.192;5.722;2022-10-28T09:54:00;100217.72;;;19.71;71.51
62548;BME280;48602;45.192;5.722;2022-10-28T09:56:27;100220.06;;;19.77;71.00
62548;BME280;48602;45.192;5.722;2022-10-28T09:58:55;100208.94;;;19.83;71.08
62548;BME280;48602;45.192;5.722;2022-10-28T10:01:22;100210.00;;;19.80;69.84
62548;BME280;48602;45.192;5.722;2022-10-28T10:03:49;100208.66;;;19.73;71.43
62548;BME280;48602;45.192;5.722;2022-10-28T10:08:51;100207.47;;;19.63;70.90
62548;BME280;48602;45.192;5.722;2022-10-28T10:11:28;100205.84;;;19.61;71.43
62548;BME280;48602;45.192;5.722;2022-10-28T10:13:59;100209.59;;;19.58;70.02
62548;BME280;48602;45.192;5.722;2022-10-28T10:16:47;100213.22;;;19.57;69.13
62548;BME280;48602;45.192;5.722;2022-10-28T10:19:14;100215.44;;;19.49;69.54
62548;BME280;48602;45.192;5.722;2022-10-28T10:26:44;100201.75;;;19.39;70.06
62548;BME280;48602;45.192;5.722;2022-10-28T10:29:11;100204.06;;;19.45;70.54
62548;BME280;48602;45.192;5.722;2022-10-28T10:31:38;100192.09;;;19.52;72.28
62548;BME280;48602;45.192;5.722;2022-10-28T10:34:03;100187.13;;;19.61;70.72
62548;BME280;48602;45.192;5.722;2022-10-28T10:36:29;100179.41;;;19.70;70.63
62548;BME280;48602;45.192;5.722;2022-10-28T10:39:00;100184.97;;;19.81;70.04
62548;BME280;48602;45.192;5.722;2022-10-28T10:49:34;100168.16;;;20.36;68.66
62548;BME280;48602;45.192;5.722;2022-10-28T10:52:06;100162.03;;;20.48;68.29
62548;BME280;48602;45.192;5.722;2022-10-28T10:54:33;100168.44;;;20.60;67.70
62548;BME280;48602;45.192;5.722;2022-10-28T10:57:29;100159.50;;;20.74;67.49
62548;BME280;48602;45.192;5.722;2022-10-28T10:59:55;100162.41;;;20.83;67.23
62548;BME280;48602;45.192;5.722;2022-10-28T11:02:39;100149.47;;;20.90;67.63
62548;BME280;48602;45.192;5.722;2022-10-28T11:05:07;100147.13;;;20.98;67.41
62548;BME280;48602;45.192;5.722;2022-10-28T11:07:35;100141.56;;;21.01;67.61
62548;BME280;48602;45.192;5.722;2022-10-28T11:10:02;100144.91;;;21.05;67.17
62548;BME280;48602;45.192;5.722;2022-10-28T11:12:30;100136.66;;;21.08;66.97
62548;BME280;48602;45.192;5.722;2022-10-28T11:14:58;100136.34;;;21.12;67.11
62548;BME280;48602;45.192;5.722;2022-10-28T11:17:29;100124.34;;;21.18;66.72
62548;BME280;48602;45.192;5.722;2022-10-28T11:19:57;100125.78;;;21.23;66.44
62548;BME280;48602;45.192;5.722;2022-10-28T11:22:42;100122.91;;;21.27;65.72
62548;BME280;48602;45.192;5.722;2022-10-28T11:30:17;100112.09;;;21.41;64.90
62548;BME280;48602;45.192;5.722;2022-10-28T11:35:32;100088.16;;;21.50;64.54
62548;BME280;48602;45.192;5.722;2022-10-28T11:49:08;100067.97;;;21.70;62.87
62548;BME280;48602;45.192;5.722;2022-10-28T11:57:06;100068.59;;;21.86;61.66
62548;BME280;48602;45.192;5.722;2022-10-28T11:59:51;100061.81;;;21.93;61.72
62548;BME280;48602;45.192;5.722;2022-10-28T12:05:21;100059.13;;;22.06;62.63
62548;BME280;48602;45.192;5.722;2022-10-28T12:10:18;100044.53;;;22.10;61.30
62548;BME280;48602;45.192;5.722;2022-10-28T12:15:58;100035.25;;;22.14;58.44
62548;BME280;48602;45.192;5.722;2022-10-28T12:18:34;100028.28;;;22.12;59.85
62548;BME280;48602;45.192;5.722;2022-10-28T12:23:37;100028.41;;;22.10;58.15
62548;BME280;48602;45.192;5.722;2022-10-28T12:26:07;100021.31;;;22.09;59.54
62548;BME280;48602;45.192;5.722;2022-10-28T12:28:47;100020.56;;;22.07;58.18
62548;BME280;48602;45.192;5.722;2022-10-28T12:31:21;100011.97;;;22.02;59.61
62548;BME280;48602;45.192;5.722;2022-10-28T12:33:51;100015.94;;;21.97;59.74
62548;BME280;48602;45.192;5.722;2022-10-28T12:36:28;100014.34;;;21.94;57.72
62548;BME280;48602;45.192;5.722;2022-10-28T12:38:58;100018.88;;;21.93;58.41
62548;BME280;48602;45.192;5.722;2022-10-28T12:41:26;100022.25;;;21.95;58.84
62548;BME280;48602;45.192;5.722;2022-10-28T12:44:02;100015.94;;;21.97;58.10
62548;BME280;48602;45.192;5.722;2022-10-28T12:53:22;100006.50;;;22.04;59.18
62548;BME280;48602;45.192;5.722;2022-10-28T12:55:34;100001.88;;;22.06;60.12
62548;BME280;48602;45.192;5.722;2022-10-28T12:58:19;100006.91;;;22.10;58.57
62548;BME280;48602;45.192;5.722;2022-10-28T13:00:52;99996.28;;;22.09;60.47
62548;BME280;48602;45.192;5.722;2022-10-28T13:03:19;99993.59;;;22.09;61.38
62548;BME280;48602;45.192;5.722;2022-10-28T13:13:54;99985.53;;;22.09;62.31
62548;BME280;48602;45.192;5.722;2022-10-28T13:19:19;99987.38;;;22.08;63.30
62548;BME280;48602;45.192;5.722;2022-10-28T13:27:43;99981.41;;;22.16;64.17
62548;BME280;48602;45.192;5.722;2022-10-28T13:30:16;99977.53;;;22.20;65.23
62548;BME280;48602;45.192;5.722;2022-10-28T13:32:42;99979.88;;;22.24;65.47
62548;BME280;48602;45.192;5.722;2022-10-28T13:37:38;99982.84;;;22.33;65.39
62548;BME280;48602;45.192;5.722;2022-10-28T13:40:09;99975.19;;;22.39;66.00
62548;BME280;48602;45.192;5.722;2022-10-28T13:42:46;99978.41;;;22.44;64.87
62548;BME280;48602;45.192;5.722;2022-10-28T13:45:44;99967.28;;;22.49;65.53
62548;BME280;48602;45.192;5.722;2022-10-28T13:58:58;99974.06;;;22.66;64.27
62548;BME280;48602;45.192;5.722;2022-10-28T14:04:37;99961.66;;;22.76;64.68
62548;BME280;48602;45.192;5.722;2022-10-28T14:09:35;99966.56;;;22.82;64.63
62548;BME280;48602;45.192;5.722;2022-10-28T14:14:32;99967.31;;;22.84;65.31
62548;BME280;48602;45.192;5.722;2022-10-28T14:16:58;99959.13;;;22.85;65.83
62548;BME280;48602;45.192;5.722;2022-10-28T14:19:24;99959.75;;;22.89;65.30
62548;BME280;48602;45.192;5.722;2022-10-28T14:22:00;99956.81;;;22.92;65.24
62548;BME280;48602;45.192;5.722;2022-10-28T14:24:37;99962.94;;;22.94;65.59
62548;BME280;48602;45.192;5.722;2022-10-28T14:34:57;99963.81;;;22.94;66.05
62548;BME280;48602;45.192;5.722;2022-10-28T14:40:12;99964.41;;;22.98;65.74
62548;BME280;48602;45.192;5.722;2022-10-28T14:49:11;99958.78;;;23.01;65.82
62548;BME280;48602;45.192;5.722;2022-10-28T14:51:35;99960.50;;;23.02;66.59
62548;BME280;48602;45.192;5.722;2022-10-28T14:54:08;99955.00;;;23.04;66.07
62548;BME280;48602;45.192;5.722;2022-10-28T14:56:37;99958.44;;;23.06;66.20
62548;BME280;48602;45.192;5.722;2022-10-28T14:59:21;99960.16;;;23.07;65.84
62548;BME280;48602;45.192;5.722;2022-10-28T15:01:58;99961.00;;;23.07;66.06
62548;BME280;48602;45.192;5.722;2022-10-28T15:04:25;99956.50;;;23.08;65.71
62548;BME280;48602;45.192;5.722;2022-10-28T15:06:51;99958.19;;;23.09;65.82
62548;BME280;48602;45.192;5.722;2022-10-28T15:09:22;99965.41;;;23.08;65.31
62548;BME280;48602;45.192;5.722;2022-10-28T15:11:55;99961.00;;;23.07;66.03
62548;BME280;48602;45.192;5.722;2022-10-28T15:14:34;99961.97;;;23.06;65.22
62548;BME280;48602;45.192;5.722;2022-10-28T15:19:38;99955.25;;;23.01;65.43
62548;BME280;48602;45.192;5.722;2022-10-28T15:22:16;99961.59;;;23.00;65.12
62548;BME280;48602;45.192;5.722;2022-10-28T15:24:51;99958.03;;;22.99;65.73
62548;BME280;48602;45.192;5.722;2022-10-28T15:27:17;99967.19;;;22.96;66.10
62548;BME280;48602;45.192;5.722;2022-10-28T15:29:43;99965.53;;;22.95;65.55
62548;BME280;48602;45.192;5.722;2022-10-28T15:34:44;99956.09;;;22.90;65.58
62548;BME280;48602;45.192;5.722;2022-10-28T15:37:22;99960.84;;;22.86;66.02
62548;BME280;48602;45.192;5.722;2022-10-28T15:39:49;99958.50;;;22.82;65.97
62548;BME280;48602;45.192;5.722;2022-10-28T15:43:01;99960.91;;;22.74;66.70
62548;BME280;48602;45.192;5.722;2022-10-28T15:45:27;99955.13;;;22.67;66.86
62548;BME280;48602;45.192;5.722;2022-10-28T15:47:54;99961.97;;;22.60;67.10
62548;BME280;48602;45.192;5.722;2022-10-28T15:50:32;99962.44;;;22.54;67.72
62548;BME280;48602;45.192;5.722;2022-10-28T15:55:37;99968.84;;;22.40;68.65
62548;BME280;48602;45.192;5.722;2022-10-28T16:00:49;99976.13;;;22.27;69.13
62548;BME280;48602;45.192;5.722;2022-10-28T16:03:27;99965.81;;;22.21;69.47
62548;BME280;48602;45.192;5.722;2022-10-28T16:05:57;99969.81;;;22.15;69.83
62548;BME280;48602;45.192;5.722;2022-10-28T16:08:28;99963.19;;;22.08;70.17
62548;BME280;48602;45.192;5.722;2022-10-28T16:10:59;99973.53;;;22.02;70.40
62548;BME280;48602;45.192;5.722;2022-10-28T16:13:33;99974.94;;;21.94;70.67
62548;BME280;48602;45.192;5.722;2022-10-28T16:18:28;99978.72;;;21.79;71.80